Forbes Field
KFOE : rendu visible

Aérodrome :











RETROUVEZ-NOUS SUR...

 
LOGIN :

S'inscrire | Disclaimer

   EN    FR    IT 

 









Légende :    VFR   VFR Marginal   IFR   IFR Intensif   IFR Très Intensif
Visi : 
Plafond : 
>= 8 km
>= 3000ft
5 à 8 km
1000 à 3000 ft
1500m à 5 km
500 à 1000 ft
800 à 1500m
200 à 500 ft
< 800m
< 200 ft
Symboles :   Orages  Brouillard  Fortes neiges  Fortes précipitations  Vent > 20 kt






- Altitude de l'aérodrome : 1078 ft
- Code IATA : FOE


KFOE - Forbes Field

DERNIER METAR :
  • 230053Z 18011KT 10SM OVC004 02/00 A2989 RMK AO2 SLP128 T00170000

METARs EXPIRÉS :
  • 230035Z 18011KT 8SM OVC004 02/00 A2988 RMK AO2 T00170000
  • 222353Z 18013KT 9SM OVC005 01/00 A2988 RMK AO2 SLP126 60001 T00110000 10017 20011 53005
  • 222253Z 17012KT 5SM BR OVC006 02/00 A2987 RMK AO2 SLP122 T00170000

TAF KFOE
Valide du 23 à 00h jusqu'au 24 à 00h UTC


222340Z 2300/2324 18011KT 5SM BR OVC006
FM230200 18008KT 2SM BR OVC004
FM230600 19006KT 3/4SM -DZ BR OVC003
FM231200 28007KT 2SM -RASN BR OVC005
FM231800 31009KT 3SM -RASN BR OVC007



MET'MAP, la Météo Aéronautique d'un coup d'oeil ! - Copyright ORBIFLY Décembre 2007 - Disclaimer

ORBIFLY MET'MAP TEAM :

Programmation & Développement : Alexandra Zaïnal
Sur une idée originale de : Baudouin d'Aumeries
Assistance à la programmation : Marc-Olivier Méhu
Soutien technique & logistique : Manuel Goepfert

Contact : metmap@orbifly.com




SOURCES & CREDITS :

   NOAA       Earth
Advisory